SBNT/NAT METAR and TAF weather

Enter ICAO airport designator
Station Type Date Time Source
SBNT METAR 2020/11/28 20:00 UTC NOAA

SBNT 282000Z 13017KT 9999 FEW025 28/21 Q1011


Station Type Date Time Source
SBNT Decoded METAR 2020/11/28 20:00 UTC NOAA

Natal Aeroporto, Brazil (SBNT) 05-55S 035-15W 49M
Nov 28, 2020 - 03:00 PM EST / 2020.11.28 2000 UTC
Wind: from the SE (130 degrees) at 20 MPH (17 KT):0
Visibility: greater than 7 mile(s):0
Sky conditions: mostly clear
Temperature: 82 F (28 C)
Dew Point: 69 F (21 C)
Relative Humidity: 65%
Pressure (altimeter): 29.85 in. Hg (1011 hPa)
ob: SBNT 282000Z 13017KT 9999 FEW025 28/21 Q1011
cycle: 20

Station Type Date Time Source
SBNT TAF 2020/11/28 18:27 UTC NOAA

TAF SBNT 281500Z 2818/2906 13010KT 9999 SCT025 TX29/2818Z TN24/2906Z
RMK PHD

Example: see airport list